Time;durP1;ratioP1;P1;durP2;ratioP2;P2;SDS_P1;SDS_P2;PMS_P1;PMS_P2;Temp;Humidity;BMP_temperature;BMP_pressure;BME280_temperature;BME280_humidity;BME280_pressure;Samples;Min_cycle;Max_cycle;Signal;HPM_P1;HPM_P2
2022/08/31 00:06:20;;;;;;;6.70;1.50;;;;;;;13.24;90.70;100529.81;104995;1271;74493;-66
2022/08/31 00:09:08;;;;;;;8.10;1.40;;;;;;;13.19;90.77;100527.20;105065;1271;60351;-67
2022/08/31 00:11:56;;;;;;;7.30;1.60;;;;;;;13.15;91.14;100525.75;104968;1271;62045;-67
2022/08/31 00:14:44;;;;;;;6.20;1.50;;;;;;;13.10;91.36;100531.10;104847;1271;74703;-67
2022/08/31 00:17:33;;;;;;;5.60;1.30;;;;;;;13.05;91.27;100527.82;104934;1271;69440;-68
2022/08/31 00:20:23;;;;;;;6.80;1.70;;;;;;;13.01;91.51;100532.43;104824;1271;73743;-68
2022/08/31 00:23:20;;;;;;;5.40;1.40;;;;;;;12.95;92.06;100529.98;104758;1271;59680;-67
2022/08/31 00:26:08;;;;;;;6.20;1.30;;;;;;;12.90;92.13;100531.67;104923;1271;61048;-67
2022/08/31 00:28:56;;;;;;;5.50;1.20;;;;;;;12.84;92.35;100528.23;104901;1271;70910;-68
2022/08/31 00:31:44;;;;;;;7.10;1.40;;;;;;;12.78;92.29;100528.31;104896;1271;68110;-67
2022/08/31 00:34:33;;;;;;;6.40;1.40;;;;;;;12.73;91.92;100533.91;105028;1271;73762;-69
2022/08/31 00:37:21;;;;;;;5.10;1.20;;;;;;;12.70;91.73;100537.00;105039;1271;60348;-66
2022/08/31 00:40:10;;;;;;;6.60;1.20;;;;;;;12.67;91.64;100537.61;105030;1271;62066;-69
2022/08/31 00:43:01;;;;;;;5.60;1.30;;;;;;;12.63;92.24;100538.27;105402;1271;73718;-67
2022/08/31 00:45:52;;;;;;;6.40;1.50;;;;;;;12.59;92.10;100538.71;105006;1271;69630;-66
2022/08/31 00:48:58;;;;;;;6.30;1.60;;;;;;;12.55;92.01;100537.05;104885;1271;71109;-68
2022/08/31 00:52:00;;;;;;;5.70;1.40;;;;;;;12.52;92.25;100542.98;105358;1271;59764;-68
2022/08/31 00:55:02;;;;;;;5.80;1.20;;;;;;;12.49;92.10;100541.14;105199;1271;60234;-69
2022/08/31 00:57:55;;;;;;;4.90;1.40;;;;;;;12.43;92.38;100543.87;105033;1271;75162;-68
2022/08/31 01:00:44;;;;;;;6.50;1.40;;;;;;;12.39;92.70;100544.55;104898;1271;68541;-67
2022/08/31 01:03:33;;;;;;;6.00;1.70;;;;;;;12.34;92.95;100541.36;104987;1273;72332;-69
2022/08/31 01:06:22;;;;;;;7.60;1.60;;;;;;;12.28;93.06;100542.37;104962;1271;61231;-69
2022/08/31 01:09:12;;;;;;;6.20;1.40;;;;;;;12.23;93.15;100543.32;105058;1271;60888;-68
2022/08/31 01:12:02;;;;;;;6.10;1.30;;;;;;;12.19;93.26;100540.98;104773;1271;72486;-69
2022/08/31 01:14:51;;;;;;;5.40;1.20;;;;;;;12.16;92.90;100544.02;104915;1271;68787;-68
2022/08/31 01:17:41;;;;;;;5.40;1.50;;;;;;;12.14;92.66;100537.73;104986;1271;72941;-68
2022/08/31 01:21:52;;;;;;;4.80;1.20;;;;;;;12.13;92.72;100538.73;105096;1271;59639;-69
2022/08/31 01:24:44;;;;;;;5.10;1.10;;;;;;;12.09;92.15;100543.95;104536;1279;61598;-68
2022/08/31 01:27:35;;;;;;;5.30;1.30;;;;;;;12.07;92.17;100545.37;104381;1279;74819;-68
2022/08/31 01:30:25;;;;;;;6.70;1.20;;;;;;;12.03;92.21;100543.92;104393;1279;68310;-68
2022/08/31 01:33:13;;;;;;;7.00;1.80;;;;;;;11.99;92.02;100541.02;104379;1279;73730;-68
2022/08/31 01:36:02;;;;;;;6.60;1.30;;;;;;;11.94;92.21;100538.71;104363;1279;59856;-68
2022/08/31 01:38:50;;;;;;;6.10;1.10;;;;;;;11.90;92.32;100539.51;104325;1279;59637;-68
2022/08/31 01:41:42;;;;;;;6.30;1.40;;;;;;;11.87;92.61;100539.63;104274;1279;73460;-68
2022/08/31 01:44:30;;;;;;;6.60;1.20;;;;;;;11.83;92.82;100539.70;104503;1279;68208;-67
2022/08/31 01:47:18;;;;;;;6.10;1.20;;;;;;;11.79;92.98;100538.91;104383;1279;74514;-67
2022/08/31 01:50:08;;;;;;;6.10;1.00;;;;;;;11.75;92.81;100542.77;104457;1279;59920;-67
2022/08/31 01:52:56;;;;;;;7.20;1.40;;;;;;;11.71;93.34;100541.33;104644;1279;61927;-67
2022/08/31 01:55:45;;;;;;;5.80;1.40;;;;;;;11.65;93.36;100541.39;104325;1279;75016;-68
2022/08/31 01:58:33;;;;;;;7.50;1.30;;;;;;;11.61;93.56;100546.89;104381;1279;69366;-65
2022/08/31 02:01:45;;;;;;;6.60;1.60;;;;;;;11.56;94.32;100546.83;103879;1274;1461989;-69
2022/08/31 02:04:35;;;;;;;5.60;1.30;;;;;;;11.56;94.25;100551.64;104743;1271;61337;-69
2022/08/31 02:07:24;;;;;;;5.60;1.20;;;;;;;11.58;94.53;100552.41;104931;1271;61478;-69
2022/08/31 02:10:16;;;;;;;6.50;1.40;;;;;;;11.60;94.53;100547.84;105059;1271;74672;-69
2022/08/31 02:13:05;;;;;;;6.90;1.30;;;;;;;11.62;94.48;100546.09;104935;1271;68619;-69
2022/08/31 02:15:56;;;;;;;5.50;1.30;;;;;;;11.63;94.41;100548.66;104853;1272;72888;-69
2022/08/31 02:18:44;;;;;;;6.80;1.10;;;;;;;11.64;94.26;100546.63;105004;1271;59777;-70
2022/08/31 02:21:34;;;;;;;5.70;1.20;;;;;;;11.65;94.28;100546.92;105196;1271;60618;-71
2022/08/31 02:24:23;;;;;;;5.00;1.20;;;;;;;11.64;94.25;100546.96;104957;1271;73346;-69
2022/08/31 02:27:12;;;;;;;6.80;1.20;;;;;;;11.64;94.56;100545.39;104999;1271;69640;-68
2022/08/31 02:30:00;;;;;;;5.20;1.30;;;;;;;11.64;94.58;100543.80;104778;1271;73421;-68
2022/08/31 02:32:48;;;;;;;7.30;1.30;;;;;;;11.63;94.48;100548.84;104857;1273;59680;-69
2022/08/31 02:35:37;;;;;;;5.80;1.10;;;;;;;11.63;94.68;100545.34;105176;1271;59664;-68
2022/08/31 02:38:26;;;;;;;5.90;1.30;;;;;;;11.63;94.70;100542.31;104864;1271;74755;-67
2022/08/31 02:41:14;;;;;;;5.60;1.30;;;;;;;11.63;94.70;100542.77;104890;1271;67050;-67
2022/08/31 02:44:03;;;;;;;7.70;1.20;;;;;;;11.66;94.63;100545.42;105052;1271;74536;-66
2022/08/31 02:46:51;;;;;;;4.70;1.20;;;;;;;11.69;94.75;100543.26;105148;1271;59644;-68
2022/08/31 02:49:53;;;;;;;5.70;1.50;;;;;;;11.72;94.61;100545.89;105111;1271;60511;-68
2022/08/31 02:52:41;;;;;;;5.80;1.30;;;;;;;11.74;94.42;100543.38;105225;1271;74825;-67
2022/08/31 02:55:29;;;;;;;5.40;1.20;;;;;;;11.78;94.44;100543.83;105060;1271;66823;-69
2022/08/31 02:58:17;;;;;;;7.80;1.20;;;;;;;11.82;94.87;100541.90;105019;1272;72226;-67
2022/08/31 03:01:10;;;;;;;6.00;1.20;;;;;;;11.86;95.21;100542.48;105269;1272;61107;-71
2022/08/31 03:04:01;;;;;;;6.40;1.40;;;;;;;11.90;95.34;100543.80;104883;1271;62015;-71
2022/08/31 03:06:49;;;;;;;6.20;1.30;;;;;;;11.94;95.34;100539.78;104807;1271;73693;-71
2022/08/31 03:09:37;;;;;;;6.50;1.30;;;;;;;11.99;95.37;100542.83;104868;1271;68586;-71
2022/08/31 03:12:25;;;;;;;6.60;1.60;;;;;;;12.04;95.65;100547.73;104783;1271;72861;-72
2022/08/31 03:15:17;;;;;;;8.90;1.30;;;;;;;12.11;95.61;100551.33;105366;1270;59710;-72
2022/08/31 03:18:06;;;;;;;6.40;1.20;;;;;;;12.18;96.24;100551.52;105227;1271;59637;-74
2022/08/31 03:20:55;;;;;;;6.50;1.40;;;;;;;12.23;96.24;100546.80;104983;1271;73153;-72
2022/08/31 03:23:43;;;;;;;6.30;1.40;;;;;;;12.30;96.47;100547.57;106330;1271;69318;-71
2022/08/31 03:26:31;;;;;;;9.20;1.50;;;;;;;12.37;96.84;100546.68;106044;1271;73558;-72
2022/08/31 03:29:22;;;;;;;5.20;1.20;;;;;;;12.43;97.44;100550.11;105006;1271;61537;-73
2022/08/31 03:32:13;;;;;;;7.10;1.50;;;;;;;12.50;97.80;100552.79;105162;1271;60567;-72
2022/08/31 03:35:03;;;;;;;5.30;1.20;;;;;;;12.56;98.12;100554.77;104907;1271;73082;-73
2022/08/31 03:37:51;;;;;;;4.80;1.00;;;;;;;12.61;98.03;100552.42;105209;1271;69958;-72
2022/08/31 03:40:41;;;;;;;6.40;1.30;;;;;;;12.64;97.54;100549.34;105041;1271;72615;-71
2022/08/31 03:43:29;;;;;;;5.00;1.20;;;;;;;12.67;97.26;100552.21;105020;1271;60379;-72
2022/08/31 03:46:18;;;;;;;7.10;1.20;;;;;;;12.64;97.16;100555.59;105162;1271;61802;-73
2022/08/31 03:49:08;;;;;;;6.10;1.20;;;;;;;12.62;96.89;100553.13;105090;1271;75028;-72
2022/08/31 03:52:03;;;;;;;7.00;1.40;;;;;;;12.57;97.34;100553.64;105357;1271;68090;-72
2022/08/31 03:54:54;;;;;;;8.80;1.30;;;;;;;12.54;97.34;100559.44;105048;1271;74480;-72
2022/08/31 03:57:42;;;;;;;5.40;1.20;;;;;;;12.48;97.11;100560.74;104904;1271;61167;-71
2022/08/31 04:00:31;;;;;;;8.00;1.30;;;;;;;12.42;97.04;100563.84;105213;1271;60514;-71
2022/08/31 04:03:20;;;;;;;6.20;1.50;;;;;;;12.39;97.23;100565.92;104906;1271;73156;-71
2022/08/31 04:06:28;;;;;;;6.30;1.30;;;;;;;12.35;97.29;100563.74;105113;1271;69581;-72
2022/08/31 04:09:35;;;;;;;6.80;1.30;;;;;;;12.29;97.44;100565.96;105023;1271;74523;-73
2022/08/31 04:13:02;;;;;;;8.30;1.20;;;;;;;12.26;97.47;100572.40;105278;1271;59757;-71
2022/08/31 04:16:20;;;;;;;5.90;1.30;;;;;;;12.25;97.69;100573.74;105331;1271;59636;-75
2022/08/31 04:19:24;;;;;;;6.70;1.50;;;;;;;12.22;97.45;100574.13;104942;1271;73245;-73
2022/08/31 04:22:34;;;;;;;6.50;1.20;;;;;;;12.20;97.52;100571.05;105557;1271;68618;-73
2022/08/31 04:25:47;;;;;;;6.40;1.40;;;;;;;12.17;97.51;100567.55;105423;1271;72793;-73
2022/08/31 04:28:35;;;;;;;7.10;1.60;;;;;;;12.16;97.62;100571.55;105116;1270;60248;-75
2022/08/31 04:31:25;;;;;;;5.20;1.20;;;;;;;12.17;97.67;100572.04;105074;1271;60510;-75
2022/08/31 04:34:13;;;;;;;6.60;1.40;;;;;;;12.17;97.70;100571.16;105236;1274;73296;-73
2022/08/31 04:37:02;;;;;;;5.30;1.30;;;;;;;12.20;97.82;100572.48;105260;1271;66807;-75
2022/08/31 04:39:54;;;;;;;5.40;1.40;;;;;;;12.26;97.67;100573.66;105556;1271;74433;-73
2022/08/31 04:42:48;;;;;;;5.50;1.20;;;;;;;12.30;97.34;100574.94;105344;1271;59697;-74
2022/08/31 04:45:41;;;;;;;4.70;1.10;;;;;;;12.36;97.02;100572.06;105368;1271;59583;-75
2022/08/31 04:48:34;;;;;;;7.80;1.50;;;;;;;12.39;96.96;100573.55;105147;1271;73826;-75
2022/08/31 04:51:34;;;;;;;7.00;1.50;;;;;;;12.44;96.64;100575.84;108474;1270;69129;-73
2022/08/31 04:54:23;;;;;;;5.50;1.40;;;;;;;12.49;96.34;100576.35;106133;1271;74292;-74
2022/08/31 04:57:11;;;;;;;7.10;1.50;;;;;;;12.51;96.01;100571.24;105748;1271;59636;-74
2022/08/31 05:00:01;;;;;;;5.80;1.40;;;;;;;12.51;95.86;100571.92;105904;1271;61878;-73
2022/08/31 05:03:17;;;;;;;5.70;1.50;;;;;;;12.51;95.90;100575.65;105354;1271;74889;-73
2022/08/31 05:06:17;;;;;;;7.10;1.40;;;;;;;12.52;96.04;100578.27;105411;1273;68096;-74
2022/08/31 05:09:12;;;;;;;6.20;1.30;;;;;;;12.55;95.76;100576.58;105068;1271;72640;-74
2022/08/31 05:12:03;;;;;;;5.80;1.30;;;;;;;12.59;95.65;100577.68;105068;1271;60409;-74
2022/08/31 05:14:51;;;;;;;5.40;1.40;;;;;;;12.64;95.32;100580.16;104840;1274;60091;-76
2022/08/31 05:17:45;;;;;;;7.00;1.60;;;;;;;12.69;95.08;100582.64;106428;1271;74090;-76
2022/08/31 05:20:41;;;;;;;6.10;1.40;;;;;;;12.75;95.11;100585.18;105408;1271;69442;-76
2022/08/31 05:23:29;;;;;;;7.40;1.40;;;;;;;12.82;94.92;100592.45;105596;1271;72949;-76
2022/08/31 05:26:20;;;;;;;6.20;1.30;;;;;;;12.86;94.52;100587.84;104933;1271;59576;-77
2022/08/31 05:29:20;;;;;;;7.00;1.50;;;;;;;12.94;94.09;100592.23;105237;1272;60386;-75
2022/08/31 05:32:09;;;;;;;5.00;1.30;;;;;;;12.99;93.68;100593.41;105550;1271;73769;-75
2022/08/31 05:34:59;;;;;;;5.50;1.20;;;;;;;13.02;93.32;100593.05;105111;1271;68880;-76
2022/08/31 05:37:50;;;;;;;5.50;1.40;;;;;;;13.04;92.85;100595.41;105369;1270;73066;-76
2022/08/31 05:40:39;;;;;;;5.10;1.30;;;;;;;13.06;92.87;100594.48;104992;1271;59723;-76
2022/08/31 05:43:28;;;;;;;5.60;1.30;;;;;;;13.14;93.02;100592.58;105112;1271;60557;-77
2022/08/31 05:46:16;;;;;;;7.20;1.40;;;;;;;13.22;92.68;100592.30;105372;1271;74228;-76
2022/08/31 05:49:06;;;;;;;6.80;1.20;;;;;;;13.31;92.33;100589.67;105242;1271;67949;-77
2022/08/31 05:51:58;;;;;;;5.60;1.40;;;;;;;13.41;92.36;100589.59;105692;1271;74518;-74
2022/08/31 05:54:47;;;;;;;5.70;1.30;;;;;;;13.54;92.07;100590.73;105390;1271;59651;-81
2022/08/31 05:57:35;;;;;;;6.80;1.60;;;;;;;13.68;91.61;100595.06;105512;1271;60451;-75
2022/08/31 06:00:24;;;;;;;6.00;1.20;;;;;;;13.88;91.26;100596.63;105147;1271;74665;-76
2022/08/31 06:03:15;;;;;;;5.40;1.40;;;;;;;14.09;90.53;100590.94;104947;1271;66619;-76
2022/08/31 06:06:04;;;;;;;7.40;1.40;;;;;;;14.26;90.08;100598.98;105178;1271;72376;-76
2022/08/31 06:08:52;;;;;;;4.40;1.10;;;;;;;14.45;89.25;100598.63;105022;1271;59715;-77
2022/08/31 06:11:41;;;;;;;4.70;1.20;;;;;;;14.65;88.43;100598.03;105172;1270;60468;-78
2022/08/31 06:14:32;;;;;;;6.30;1.30;;;;;;;14.89;87.18;100605.04;105225;1271;73297;-73
2022/08/31 06:17:20;;;;;;;6.20;1.10;;;;;;;15.21;86.31;100603.89;105368;1271;68226;-74
2022/08/31 06:20:09;;;;;;;6.20;1.40;;;;;;;15.65;83.56;100601.36;105122;1271;72844;-74
2022/08/31 06:23:08;;;;;;;5.30;1.40;;;;;;;16.96;81.13;100600.68;105041;1271;60009;-74
2022/08/31 06:26:11;;;;;;;5.60;1.00;;;;;;;19.28;72.90;100601.83;105170;1271;60978;-73
2022/08/31 06:29:05;;;;;;;5.00;1.00;;;;;;;21.54;65.67;100601.96;105265;1271;74106;-73
2022/08/31 06:31:54;;;;;;;5.90;1.00;;;;;;;23.63;56.97;100606.15;104999;1271;66694;-75
2022/08/31 06:34:42;;;;;;;4.30;0.90;;;;;;;25.33;50.56;100600.95;104990;1271;71285;-74
2022/08/31 06:37:34;;;;;;;5.60;1.00;;;;;;;25.22;49.11;100603.69;105212;1271;59708;-74
2022/08/31 06:40:28;;;;;;;6.80;0.90;;;;;;;25.29;46.67;100602.96;105294;1271;60250;-74
2022/08/31 06:43:35;;;;;;;4.30;0.70;;;;;;;24.64;48.66;100608.38;105308;1271;74935;-76
2022/08/31 06:46:39;;;;;;;6.60;1.00;;;;;;;24.83;49.43;100612.02;105091;1271;68120;-73
2022/08/31 06:49:37;;;;;;;5.10;1.00;;;;;;;26.58;46.84;100608.35;105269;1271;74590;-75
2022/08/31 06:52:26;;;;;;;5.40;1.20;;;;;;;28.14;43.51;100607.63;105338;1271;59883;-74
2022/08/31 06:55:33;;;;;;;5.90;1.20;;;;;;;29.68;40.37;100604.59;105126;1271;61012;-73
2022/08/31 06:58:41;;;;;;;6.70;1.80;;;;;;;30.50;37.17;100604.73;105505;1271;75009;-73
2022/08/31 07:02:00;;;;;;;5.10;1.10;;;;;;;31.66;35.16;100604.46;105278;1271;67423;-74
2022/08/31 07:04:51;;;;;;;4.50;0.90;;;;;;;32.62;32.92;100604.50;104996;1271;72897;-74
2022/08/31 07:07:39;;;;;;;7.10;1.80;;;;;;;33.37;31.35;100594.48;105252;1271;59663;-74
2022/08/31 07:10:27;;;;;;;5.40;1.00;;;;;;;32.89;30.20;100600.16;105215;1271;59666;-75
2022/08/31 07:13:15;;;;;;;6.10;0.70;;;;;;;31.93;30.52;100602.31;105057;1271;74587;-75
2022/08/31 07:16:07;;;;;;;4.80;0.60;;;;;;;30.49;32.17;100603.44;105142;1271;66534;-75
2022/08/31 07:19:02;;;;;;;5.50;1.80;;;;;;;28.75;34.29;100608.64;105021;1271;74451;-73
2022/08/31 07:21:54;;;;;;;6.20;1.70;;;;;;;27.26;36.42;100610.71;104982;1271;59707;-74
2022/08/31 07:24:46;;;;;;;4.60;0.70;;;;;;;27.04;36.91;100609.02;104957;1271;61367;-76
2022/08/31 07:27:34;;;;;;;4.80;1.00;;;;;;;25.96;38.66;100615.10;105168;1271;73579;-74
2022/08/31 07:30:24;;;;;;;4.50;0.90;;;;;;;24.92;40.37;100615.83;105269;1271;67821;-75
2022/08/31 07:33:18;;;;;;;5.80;1.00;;;;;;;24.01;42.23;100621.96;105293;1270;74180;-76
2022/08/31 07:36:14;;;;;;;5.30;1.00;;;;;;;22.97;44.30;100625.83;105065;1271;59736;-74
2022/08/31 07:42:37;;;;;;;4.50;0.80;;;;;;;23.84;43.76;100622.80;105163;1271;73150;-76
2022/08/31 07:45:28;;;;;;;6.30;1.20;;;;;;;25.08;41.82;100624.42;105349;1271;66891;-74
2022/08/31 07:48:26;;;;;;;5.50;0.90;;;;;;;25.24;41.10;100626.90;105126;1271;73306;-75
2022/08/31 07:51:28;;;;;;;4.70;0.90;;;;;;;26.21;38.72;100629.19;105531;1271;59608;-74
2022/08/31 07:54:39;;;;;;;5.40;1.00;;;;;;;27.50;36.87;100628.78;105148;1271;61093;-75
2022/08/31 07:57:42;;;;;;;7.30;1.50;;;;;;;27.81;35.40;100632.66;105403;1271;74338;-74
2022/08/31 08:00:35;;;;;;;7.40;2.10;;;;;;;28.74;34.34;100631.96;104996;1271;67049;-75
2022/08/31 08:03:24;;;;;;;5.10;0.70;;;;;;;28.69;33.58;100632.63;105022;1274;72001;-75
2022/08/31 08:06:31;;;;;;;4.50;1.00;;;;;;;27.25;36.14;100636.48;105293;1271;59551;-75
2022/08/31 08:09:32;;;;;;;5.70;1.20;;;;;;;27.35;35.83;100638.39;105433;1271;62249;-70
2022/08/31 08:12:35;;;;;;;6.00;1.10;;;;;;;28.56;35.14;100637.32;105318;1271;73774;-73
2022/08/31 08:15:43;;;;;;;7.70;1.90;;;;;;;30.21;32.61;100640.66;105473;1271;69799;-72
2022/08/31 08:19:03;;;;;;;4.90;1.00;;;;;;;31.67;29.74;100642.33;105279;1271;72668;-71
2022/08/31 08:21:52;;;;;;;6.60;2.00;;;;;;;32.87;28.16;100649.83;105056;1271;59654;-74
2022/08/31 08:24:45;;;;;;;5.60;1.30;;;;;;;33.25;27.51;100649.08;105153;1271;60383;-73
2022/08/31 08:28:06;;;;;;;4.00;0.70;;;;;;;33.70;25.79;100648.68;105573;1271;72708;-75
2022/08/31 08:31:21;;;;;;;3.50;0.70;;;;;;;34.15;25.27;100647.70;104972;1271;68082;-74
2022/08/31 08:34:10;;;;;;;4.10;0.60;;;;;;;34.23;25.07;100651.59;104955;1271;71564;-74
2022/08/31 08:36:59;;;;;;;3.60;0.70;;;;;;;32.66;26.50;100657.86;104989;1271;59728;-73
2022/08/31 08:39:48;;;;;;;4.90;1.10;;;;;;;31.93;27.59;100652.57;104959;1271;62165;-73
2022/08/31 08:42:40;;;;;;;5.40;0.70;;;;;;;32.03;27.34;100651.27;105000;1271;70956;-74
2022/08/31 08:45:52;;;;;;;4.20;0.80;;;;;;;31.66;27.21;100648.27;105017;1272;68626;-74
2022/08/31 08:48:50;;;;;;;3.80;0.60;;;;;;;30.89;27.63;100645.41;105327;1271;72914;-75
2022/08/31 08:51:49;;;;;;;4.80;0.80;;;;;;;29.39;29.08;100651.66;104888;1275;59657;-73
2022/08/31 08:54:45;;;;;;;4.90;1.00;;;;;;;28.93;29.21;100650.48;104697;1277;60222;-72
2022/08/31 08:57:41;;;;;;;4.10;0.70;;;;;;;29.83;29.37;100645.53;104965;1277;72267;-71
2022/08/31 09:00:28;;;;;;;4.10;0.70;;;;;;;30.78;28.35;100644.91;104821;1276;68161;-73
2022/08/31 09:03:45;;;;;;;3.60;0.70;;;;;;;31.66;27.19;100638.91;104715;1277;71823;-72
2022/08/31 09:07:17;;;;;;;4.00;0.50;;;;;;;32.09;27.68;100647.13;104957;1276;59798;-73
2022/08/31 09:10:21;;;;;;;3.60;0.60;;;;;;;31.44;28.19;100648.33;104957;1276;62081;-71
2022/08/31 09:13:37;;;;;;;3.60;0.50;;;;;;;31.23;27.78;100648.44;104746;1276;73776;-72
2022/08/31 09:16:48;;;;;;;3.90;0.70;;;;;;;30.65;28.50;100652.56;104716;1277;68599;-71
2022/08/31 09:22:49;;;;;;;3.40;0.60;;;;;;;30.21;29.39;100657.19;104901;1271;60283;-73
2022/08/31 09:25:51;;;;;;;3.90;0.60;;;;;;;30.93;27.88;100654.80;105047;1272;61381;-70
2022/08/31 09:28:51;;;;;;;4.70;0.70;;;;;;;29.68;28.27;100662.71;105352;1271;71945;-72
2022/08/31 09:31:42;;;;;;;2.70;0.50;;;;;;;29.06;29.26;100663.75;105125;1271;69203;-73
2022/08/31 09:34:36;;;;;;;5.50;2.00;;;;;;;30.06;28.48;100656.55;105102;1271;74763;-74
2022/08/31 09:37:27;;;;;;;4.90;1.20;;;;;;;30.99;26.81;100658.02;105154;1271;59780;-73
2022/08/31 09:40:35;;;;;;;4.00;0.90;;;;;;;29.85;27.31;100660.39;105380;1271;60760;-74
2022/08/31 09:43:23;;;;;;;4.90;1.10;;;;;;;29.65;28.75;100659.90;104959;1271;73795;-72
2022/08/31 09:46:29;;;;;;;6.60;2.40;;;;;;;30.22;28.18;100654.80;105152;1271;68004;-74
2022/08/31 09:49:26;;;;;;;7.00;2.90;;;;;;;31.01;25.98;100659.21;104948;1271;72939;-73
2022/08/31 09:55:36;;;;;;;7.80;3.90;;;;;;;32.37;24.78;100657.15;105169;1271;61955;-73
2022/08/31 09:58:29;;;;;;;6.20;1.90;;;;;;;33.07;23.98;100651.91;105082;1271;74812;-74
2022/08/31 10:01:37;;;;;;;4.20;0.90;;;;;;;33.60;23.28;100650.88;105156;1271;69513;-74
2022/08/31 10:04:35;;;;;;;4.10;0.70;;;;;;;34.59;22.56;100653.04;104971;1271;71574;-73
2022/08/31 10:07:40;;;;;;;3.40;0.50;;;;;;;34.60;21.53;100651.65;105140;1271;60182;-73
2022/08/31 10:10:35;;;;;;;3.80;0.60;;;;;;;33.26;23.10;100659.47;105273;1271;62060;-72
2022/08/31 10:13:48;;;;;;;3.70;0.60;;;;;;;33.77;22.63;100651.92;104955;1271;74230;-72
2022/08/31 10:16:51;;;;;;;3.70;0.70;;;;;;;33.18;22.85;100654.65;104887;1271;68785;-73
2022/08/31 10:19:50;;;;;;;4.10;0.60;;;;;;;33.02;23.78;100656.43;104929;1271;74268;-73
2022/08/31 10:22:55;;;;;;;5.20;0.80;;;;;;;33.33;23.52;100650.39;105136;1271;59659;-74
2022/08/31 10:25:51;;;;;;;5.50;0.70;;;;;;;33.87;23.29;100643.68;105015;1271;59743;-73
2022/08/31 10:28:51;;;;;;;3.90;0.60;;;;;;;32.91;24.46;100646.05;105334;1271;72037;-73
2022/08/31 10:31:48;;;;;;;5.20;0.60;;;;;;;31.14;26.29;100645.41;105143;1271;68606;-75
2022/08/31 10:38:07;;;;;;;3.70;0.70;;;;;;;30.33;27.80;100641.08;105305;1271;59674;-73
2022/08/31 10:41:15;;;;;;;5.30;1.10;;;;;;;30.87;27.25;100635.23;105545;1271;62095;-74
2022/08/31 10:44:28;;;;;;;4.10;0.70;;;;;;;30.84;26.24;100633.28;105148;1271;73226;-72
2022/08/31 10:47:15;;;;;;;4.10;0.70;;;;;;;29.66;27.26;100635.20;105152;1271;65804;-73
2022/08/31 10:50:51;;;;;;;4.90;0.90;;;;;;;30.36;27.42;100636.98;105419;1271;72783;-71
2022/08/31 10:53:58;;;;;;;4.60;0.80;;;;;;;31.24;26.06;100622.19;105278;1271;59656;-72
2022/08/31 10:57:07;;;;;;;3.50;0.70;;;;;;;30.13;26.56;100635.55;105481;1271;61104;-75
2022/08/31 11:00:44;;;;;;;4.00;0.70;;;;;;;30.29;27.03;100631.42;105160;1271;74764;-73
2022/08/31 11:04:00;;;;;;;5.60;0.80;;;;;;;30.88;26.66;100631.29;105037;1271;66777;-75
2022/08/31 11:07:11;;;;;;;4.20;0.70;;;;;;;31.06;26.59;100625.48;105475;1271;74463;-73
2022/08/31 11:10:29;;;;;;;3.30;0.60;;;;;;;30.66;26.92;100630.70;105271;1271;59695;-73
2022/08/31 11:13:59;;;;;;;4.40;0.90;;;;;;;30.03;27.38;100630.19;105373;1271;62013;-73
2022/08/31 11:17:13;;;;;;;4.60;0.80;;;;;;;30.55;26.19;100627.78;105098;1271;73061;-73
2022/08/31 11:20:53;;;;;;;5.20;0.90;;;;;;;30.89;26.41;100628.27;105346;1271;69661;-72
2022/08/31 11:23:56;;;;;;;4.50;0.80;;;;;;;31.33;25.76;100633.20;105027;1271;74438;-74
2022/08/31 11:26:51;;;;;;;4.80;0.90;;;;;;;31.23;25.28;100624.15;105563;1271;59709;-73
2022/08/31 11:29:55;;;;;;;4.60;0.80;;;;;;;31.23;25.60;100623.15;105117;1271;60497;-74
2022/08/31 11:32:50;;;;;;;4.00;0.70;;;;;;;31.06;25.54;100631.92;105151;1271;73923;-76
2022/08/31 11:35:48;;;;;;;4.10;0.70;;;;;;;30.99;25.16;100626.42;105149;1271;68099;-74
2022/08/31 11:39:12;;;;;;;4.10;0.80;;;;;;;30.83;25.45;100625.63;105220;1271;72615;-73
2022/08/31 11:42:32;;;;;;;5.20;1.00;;;;;;;30.28;26.47;100631.61;105565;1271;60001;-73
2022/08/31 11:45:31;;;;;;;3.60;0.60;;;;;;;29.93;26.05;100627.92;105084;1272;60592;-72
2022/08/31 11:48:53;;;;;;;4.10;0.80;;;;;;;29.69;26.85;100623.54;105072;1271;73256;-73
2022/08/31 11:51:40;;;;;;;4.70;0.80;;;;;;;29.41;28.60;100624.24;105558;1271;66816;-72
2022/08/31 11:54:32;;;;;;;4.90;0.90;;;;;;;29.04;29.46;100622.67;105096;1271;74405;-72
2022/08/31 11:57:30;;;;;;;6.30;0.80;;;;;;;28.20;30.68;100632.02;105110;1271;59739;-75
2022/08/31 12:00:57;;;;;;;4.40;0.80;;;;;;;27.51;31.28;100629.98;104965;1272;59707;-73
2022/08/31 12:03:55;;;;;;;6.50;0.80;;;;;;;27.29;31.79;100625.70;105072;1271;73722;-72
2022/08/31 12:06:49;;;;;;;3.80;0.80;;;;;;;27.19;32.27;100625.33;105136;1271;68043;-73
2022/08/31 12:09:50;;;;;;;5.50;1.00;;;;;;;26.48;32.91;100631.82;105115;1271;72730;-73
2022/08/31 12:13:02;;;;;;;4.40;0.80;;;;;;;25.91;34.29;100621.52;105084;1272;59759;-74
2022/08/31 12:16:26;;;;;;;4.30;0.80;;;;;;;25.66;34.83;100620.67;105104;1271;60503;-74
2022/08/31 12:19:58;;;;;;;4.50;0.90;;;;;;;25.26;34.96;100620.05;105287;1271;74809;-73
2022/08/31 12:23:36;;;;;;;4.50;0.90;;;;;;;24.77;36.38;100617.52;105069;1271;67875;-73
2022/08/31 12:26:58;;;;;;;4.70;0.90;;;;;;;24.49;36.95;100622.05;105334;1271;72061;-73
2022/08/31 12:29:45;;;;;;;4.30;0.90;;;;;;;24.12;37.23;100623.09;105290;1271;59878;-74
2022/08/31 12:32:40;;;;;;;5.10;1.20;;;;;;;23.88;37.30;100620.08;105096;1271;61229;-73
2022/08/31 12:35:31;;;;;;;4.60;0.90;;;;;;;23.65;37.62;100625.01;105125;1271;74729;-72
2022/08/31 12:38:22;;;;;;;4.90;0.90;;;;;;;23.44;38.98;100620.00;105101;1271;68135;-73
2022/08/31 12:41:13;;;;;;;4.10;0.80;;;;;;;23.15;39.65;100613.70;105128;1271;73155;-74
2022/08/31 12:44:00;;;;;;;5.50;0.90;;;;;;;22.79;41.13;100617.55;105112;1271;59749;-73
2022/08/31 12:47:22;;;;;;;5.30;0.90;;;;;;;22.64;41.51;100618.46;105178;1271;59625;-73
2022/08/31 12:50:44;;;;;;;5.90;1.10;;;;;;;22.56;41.77;100616.09;105067;1272;73336;-74
2022/08/31 12:53:58;;;;;;;5.20;0.90;;;;;;;22.09;42.29;100618.45;105077;1271;65962;-75
2022/08/31 12:57:11;;;;;;;4.80;1.10;;;;;;;21.64;43.50;100613.00;105085;1271;73733;-74
2022/08/31 13:00:06;;;;;;;5.10;1.40;;;;;;;21.50;43.88;100608.42;105123;1271;59842;-73
2022/08/31 13:03:16;;;;;;;5.20;1.00;;;;;;;21.52;44.10;100601.92;105140;1271;59689;-73
2022/08/31 13:06:12;;;;;;;4.50;1.00;;;;;;;21.46;43.91;100604.76;105182;1271;72009;-72
2022/08/31 13:09:03;;;;;;;5.20;1.10;;;;;;;21.21;43.63;100610.35;105116;1271;69612;-74
2022/08/31 13:11:53;;;;;;;4.70;1.00;;;;;;;21.07;44.41;100613.36;104935;1271;72901;-75
2022/08/31 13:14:45;;;;;;;6.50;1.00;;;;;;;21.11;44.16;100611.68;105108;1271;59783;-73
2022/08/31 13:17:38;;;;;;;5.40;1.10;;;;;;;21.04;44.21;100603.71;105109;1271;60214;-71
2022/08/31 13:20:42;;;;;;;4.50;1.10;;;;;;;20.75;44.93;100608.51;105231;1271;72880;-72
2022/08/31 13:23:41;;;;;;;5.50;1.40;;;;;;;20.43;46.21;100606.97;104797;1277;70040;-74
2022/08/31 13:26:29;;;;;;;4.80;1.20;;;;;;;20.12;47.28;100609.80;104746;1276;71511;-71
2022/08/31 13:29:22;;;;;;;7.00;1.30;;;;;;;20.08;47.70;100608.20;104780;1276;60037;-75
2022/08/31 13:32:32;;;;;;;7.10;1.30;;;;;;;20.14;47.82;100603.95;104672;1277;60990;-72
2022/08/31 13:35:32;;;;;;;4.60;1.10;;;;;;;20.19;47.74;100594.16;104992;1277;73589;-74
2022/08/31 13:38:27;;;;;;;4.60;0.90;;;;;;;20.26;47.63;100596.63;105070;1276;66934;-73
2022/08/31 13:41:42;;;;;;;4.80;1.00;;;;;;;20.20;46.78;100600.88;104761;1277;74407;-73
2022/08/31 13:44:36;;;;;;;4.90;1.00;;;;;;;20.04;45.30;100598.54;104971;1276;59800;-73
2022/08/31 13:47:29;;;;;;;4.80;1.10;;;;;;;19.95;45.65;100595.98;104775;1277;60030;-73
2022/08/31 13:50:20;;;;;;;5.10;1.10;;;;;;;19.84;46.20;100596.11;104756;1277;73581;-74
2022/08/31 13:53:09;;;;;;;4.80;1.00;;;;;;;19.72;46.78;100591.57;105277;1276;69690;-72